KMPV/MPV METAR and TAF weather

Enter ICAO airport designator
Station Type Date Time Source
KMPV METAR 2019/02/20 22:51 UTC NOAA

KMPV 202251Z AUTO 00000KT 10SM OVC110 M06/M13 A3033 RMK AO2 SLP300 T10561128


Station Type Date Time Source
KMPV Decoded METAR 2019/02/20 22:51 UTC NOAA

KNAPP STATE AIRPORT, VT, United States (KMPV) 44-12N 072-34W 343M
Feb 20, 2019 - 05:51 PM EST / 2019.02.20 2251 UTC
Wind: Calm:0
Visibility: 10 mile(s):0
Sky conditions: overcast
Temperature: 21.9 F (-5.6 C)
Dew Point: 9.0 F (-12.8 C)
Relative Humidity: 56%
Pressure (altimeter): 30.33 in. Hg (1027 hPa)
ob: KMPV 202251Z AUTO 00000KT 10SM OVC110 M06/M13 A3033 RMK AO2 SLP300 T10561128
cycle: 23

Station Type Date Time Source
KMPV TAF 2019/02/20 18:24 UTC NOAA

TAF KMPV 201723Z 2018/2118 14009KT P6SM OVC180
FM210300 15008KT 1 1/2SM -SN BR OVC035
FM211100 17011KT P6SM VCSH OVC018
FM211300 18010KT P6SM OVC025
FM211600 21009KT P6SM BKN035


Example: see airport list